Time;durP1;ratioP1;P1;durP2;ratioP2;P2;SDS_P1;SDS_P2;PMS_P1;PMS_P2;Temp;Humidity;BMP_temperature;BMP_pressure;BME280_temperature;BME280_humidity;BME280_pressure;Samples;Min_cycle;Max_cycle;Signal;HPM_P1;HPM_P2
2021/06/10 04:12:39;;;;;;;0.20;0.20;;;18.70;99.90;;;;;;4922378;23;20231;-79
2021/06/10 04:15:07;;;;;;;0.30;0.30;;;18.60;99.90;;;;;;4920105;29;20266;-78
2021/06/10 04:17:35;;;;;;;0.20;0.20;;;18.50;99.90;;;;;;4920171;29;20206;-80
2021/06/10 04:20:03;;;;;;;0.20;0.20;;;18.40;99.90;;;;;;4921002;29;20263;-78
2021/06/10 04:22:31;;;;;;;0.30;0.30;;;18.50;99.90;;;;;;4920050;29;20250;-79
2021/06/10 04:24:58;;;;;;;0.20;0.20;;;18.40;99.90;;;;;;4921375;29;20203;-77
2021/06/10 04:27:25;;;;;;;0.20;0.20;;;18.50;99.90;;;;;;4919528;29;20207;-78
2021/06/10 04:29:54;;;;;;;0.20;0.20;;;18.60;99.90;;;;;;4919260;29;20242;-78
2021/06/10 04:32:21;;;;;;;0.20;0.20;;;18.70;99.90;;;;;;4917720;29;20234;-76
2021/06/10 04:34:49;;;;;;;0.20;0.20;;;18.70;99.90;;;;;;4917116;29;20199;-80
2021/06/10 04:37:17;;;;;;;0.30;0.30;;;18.80;99.90;;;;;;4917763;29;20664;-77
2021/06/10 04:39:45;;;;;;;0.30;0.30;;;18.80;99.90;;;;;;4918959;29;20203;-77
2021/06/10 04:42:12;;;;;;;0.20;0.20;;;18.80;99.90;;;;;;4916818;29;20237;-78
2021/06/10 04:44:40;;;;;;;0.30;0.30;;;19.00;99.90;;;;;;4918658;29;20235;-77
2021/06/10 04:47:09;;;;;;;0.22;0.22;;;19.00;99.90;;;;;;4921658;29;20230;-77
2021/06/10 04:49:36;;;;;;;0.30;0.30;;;19.10;99.90;;;;;;4921768;29;20215;-77
2021/06/10 04:52:05;;;;;;;0.20;0.20;;;19.30;99.90;;;;;;4922073;29;20226;-77
2021/06/10 04:54:34;;;;;;;0.20;0.20;;;19.60;99.60;;;;;;4921070;29;20202;-77
2021/06/10 04:57:01;;;;;;;0.20;0.20;;;19.80;99.60;;;;;;4919468;29;20214;-77
2021/06/10 04:59:30;;;;;;;0.20;0.20;;;19.80;99.30;;;;;;4926876;29;20227;-76
2021/06/10 05:01:57;;;;;;;0.30;0.30;;;19.80;99.00;;;;;;4922226;29;20227;-76
2021/06/10 05:04:26;;;;;;;0.30;0.30;;;19.90;99.20;;;;;;4919230;29;20250;-76
2021/06/10 05:06:54;;;;;;;0.20;0.20;;;19.90;98.80;;;;;;4909237;29;20627;-76
2021/06/10 05:09:21;;;;;;;0.20;0.20;;;20.00;98.70;;;;;;4905913;29;20259;-77
2021/06/10 05:11:49;;;;;;;0.20;0.20;;;20.00;98.50;;;;;;4900859;29;20239;-76
2021/06/10 05:14:16;;;;;;;0.20;0.20;;;20.10;98.40;;;;;;4909704;29;20262;-77
2021/06/10 05:16:44;;;;;;;0.20;0.20;;;20.20;98.10;;;;;;4927906;29;20190;-77
2021/06/10 05:19:12;;;;;;;0.20;0.20;;;20.20;98.10;;;;;;4937978;29;20183;-74
2021/06/10 05:21:41;;;;;;;0.20;0.20;;;20.10;99.90;;;;;;4942227;29;20538;-74
2021/06/10 05:24:09;;;;;;;0.20;0.20;;;20.10;99.90;;;;;;4943698;29;20224;-74
2021/06/10 05:26:36;;;;;;;0.20;0.20;;;20.10;98.20;;;;;;4943496;29;20187;-74
2021/06/10 05:29:04;;;;;;;0.20;0.20;;;20.00;98.40;;;;;;4922793;29;20214;-78
2021/06/10 05:31:32;;;;;;;0.20;0.20;;;19.90;98.90;;;;;;4919481;29;20309;-77
2021/06/10 05:33:59;;;;;;;0.20;0.20;;;19.80;99.40;;;;;;4919371;29;20227;-77
2021/06/10 05:36:27;;;;;;;0.20;0.20;;;19.80;99.20;;;;;;4919233;29;20254;-76
2021/06/10 05:38:56;;;;;;;0.30;0.30;;;20.00;99.00;;;;;;4919515;29;20575;-77
2021/06/10 05:41:23;;;;;;;0.30;0.30;;;20.00;98.60;;;;;;4919310;29;20626;-77
2021/06/10 05:43:50;;;;;;;0.20;0.20;;;20.20;98.80;;;;;;4919314;29;20263;-78
2021/06/10 05:46:20;;;;;;;0.20;0.20;;;20.20;98.40;;;;;;4919115;29;20221;-76
2021/06/10 05:48:47;;;;;;;0.25;0.25;;;20.30;98.40;;;;;;4919362;29;20261;-75
2021/06/10 05:51:15;;;;;;;0.20;0.20;;;20.60;98.10;;;;;;4919245;29;20616;-77
2021/06/10 05:53:42;;;;;;;0.30;0.30;;;20.80;97.80;;;;;;4919182;29;20648;-76
2021/06/10 05:56:11;;;;;;;0.20;0.20;;;21.10;97.50;;;;;;4919338;29;20203;-75
2021/06/10 05:58:39;;;;;;;0.20;0.20;;;21.20;98.10;;;;;;4918519;29;20619;-77
2021/06/10 06:01:06;;;;;;;0.20;0.20;;;21.30;97.40;;;;;;4919619;29;20278;-77
2021/06/10 06:03:34;;;;;;;0.20;0.20;;;21.60;97.10;;;;;;4920607;29;20303;-76
2021/06/10 06:06:01;;;;;;;0.20;0.20;;;21.70;97.00;;;;;;4921062;29;20622;-78
2021/06/10 06:08:30;;;;;;;0.20;0.20;;;21.80;97.10;;;;;;4919668;29;20286;-76
2021/06/10 06:10:58;;;;;;;0.20;0.20;;;21.90;97.00;;;;;;4919012;29;20888;-77
2021/06/10 06:13:43;;;;;;;0.20;0.20;;;22.00;96.70;;;;;;4919170;29;20227;-76
2021/06/10 06:16:11;;;;;;;0.20;0.20;;;22.20;96.30;;;;;;4919402;29;20238;-75
2021/06/10 06:18:39;;;;;;;0.20;0.20;;;22.20;96.30;;;;;;4918760;29;20210;-77
2021/06/10 06:21:07;;;;;;;0.20;0.20;;;22.20;95.80;;;;;;4919130;29;20222;-76
2021/06/10 06:23:34;;;;;;;0.20;0.20;;;22.30;96.00;;;;;;4918859;29;20222;-76
2021/06/10 06:26:03;;;;;;;0.10;0.10;;;22.30;95.50;;;;;;4918834;29;20214;-76
2021/06/10 06:28:32;;;;;;;0.20;0.20;;;22.30;96.00;;;;;;4918586;29;20587;-77
2021/06/10 06:30:59;;;;;;;0.20;0.20;;;22.50;95.50;;;;;;4917339;29;20231;-76
2021/06/10 06:33:26;;;;;;;0.20;0.20;;;22.60;95.20;;;;;;4917257;29;20313;-76
2021/06/10 06:35:55;;;;;;;0.20;0.20;;;22.60;95.10;;;;;;4917473;29;20207;-77
2021/06/10 06:38:22;;;;;;;0.10;0.10;;;22.60;95.60;;;;;;4917702;29;20207;-77
2021/06/10 06:40:50;;;;;;;0.20;0.20;;;22.60;95.30;;;;;;4917425;29;20282;-75
2021/06/10 06:43:18;;;;;;;0.10;0.10;;;22.60;95.30;;;;;;4917661;29;20221;-76
2021/06/10 06:45:47;;;;;;;0.20;0.20;;;22.60;94.80;;;;;;4917258;29;20207;-77
2021/06/10 06:48:15;;;;;;;0.20;0.20;;;22.60;95.50;;;;;;4917506;29;20298;-74
2021/06/10 06:50:42;;;;;;;0.20;0.20;;;22.80;94.80;;;;;;4917266;29;20635;-77
2021/06/10 06:53:10;;;;;;;0.20;0.20;;;22.70;95.00;;;;;;4917130;29;20218;-76
2021/06/10 06:55:37;;;;;;;0.20;0.20;;;22.80;95.10;;;;;;4917174;29;20253;-77
2021/06/10 06:58:04;;;;;;;0.10;0.10;;;22.80;95.00;;;;;;4917798;29;20218;-77
2021/06/10 07:00:32;;;;;;;0.20;0.20;;;22.90;95.30;;;;;;4917317;29;20275;-75
2021/06/10 07:03:01;;;;;;;0.20;0.20;;;23.00;95.10;;;;;;4916986;29;20257;-77
2021/06/10 07:05:28;;;;;;;0.20;0.20;;;23.10;95.30;;;;;;4916969;29;20664;-77
2021/06/10 07:07:56;;;;;;;0.20;0.20;;;23.20;95.40;;;;;;4916929;29;20253;-76
2021/06/10 07:10:24;;;;;;;0.20;0.20;;;23.50;99.90;;;;;;4917036;29;20214;-76
2021/06/10 07:12:51;;;;;;;0.20;0.20;;;23.50;95.20;;;;;;4917284;29;20280;-77
2021/06/10 07:15:18;;;;;;;0.20;0.20;;;23.60;94.40;;;;;;4916728;29;20254;-77
2021/06/10 07:17:46;;;;;;;0.10;0.10;;;23.70;94.40;;;;;;4916979;29;20211;-75
2021/06/10 07:20:15;;;;;;;0.10;0.10;;;24.20;99.90;;;;;;4917002;29;20210;-77
2021/06/10 07:22:42;;;;;;;0.10;0.10;;;24.10;94.40;;;;;;4916718;29;20206;-77
2021/06/10 07:25:10;;;;;;;0.20;0.20;;;24.20;94.10;;;;;;4917053;29;20747;-76
2021/06/10 07:27:38;;;;;;;0.17;0.17;;;24.30;93.90;;;;;;4917155;29;20207;-77
2021/06/10 07:30:07;;;;;;;0.20;0.20;;;24.50;94.20;;;;;;4917294;29;20572;-79
2021/06/10 07:32:35;;;;;;;0.10;0.10;;;24.60;93.60;;;;;;4917159;29;20230;-79
2021/06/10 07:35:04;;;;;;;0.10;0.10;;;24.50;93.60;;;;;;4917835;29;20297;-79
2021/06/10 07:37:33;;;;;;;0.13;0.13;;;24.60;93.10;;;;;;4917625;29;21114;-79
2021/06/10 07:40:00;;;;;;;0.20;0.20;;;24.50;93.00;;;;;;4917501;29;20202;-76
2021/06/10 07:42:28;;;;;;;0.10;0.10;;;24.50;93.10;;;;;;4916815;29;20230;-77
2021/06/10 07:44:55;;;;;;;0.10;0.10;;;24.60;93.70;;;;;;4918341;29;20210;-78
2021/06/10 07:47:23;;;;;;;0.20;0.20;;;24.60;93.00;;;;;;4926099;29;20186;-73
2021/06/10 07:49:50;;;;;;;0.10;0.10;;;24.60;92.90;;;;;;4940983;29;20194;-73
2021/06/10 07:52:17;;;;;;;0.20;0.20;;;24.60;92.80;;;;;;4941071;29;20214;-74
2021/06/10 07:54:46;;;;;;;0.10;0.10;;;24.10;99.90;;;;;;4941139;29;20210;-75
2021/06/10 07:57:14;;;;;;;0.10;0.10;;;24.30;93.50;;;;;;4940954;29;20252;-74
2021/06/10 07:59:42;;;;;;;0.10;0.10;;;24.50;92.90;;;;;;4925926;29;20308;-77
2021/06/10 08:02:09;;;;;;;0.10;0.10;;;24.80;93.70;;;;;;4917997;29;20227;-75
2021/06/10 08:04:37;;;;;;;0.10;0.10;;;24.90;92.90;;;;;;4916671;29;20207;-76
2021/06/10 08:07:05;;;;;;;0.10;0.10;;;24.60;93.00;;;;;;4916595;29;20210;-76
2021/06/10 08:09:32;;;;;;;0.10;0.10;;;24.60;93.00;;;;;;4917506;29;20207;-78
2021/06/10 08:12:01;;;;;;;0.10;0.10;;;24.50;93.10;;;;;;4916624;29;20234;-75
2021/06/10 08:14:29;;;;;;;0.15;0.15;;;24.40;93.40;;;;;;4916105;29;20313;-76
2021/06/10 08:16:57;;;;;;;0.10;0.10;;;24.50;93.40;;;;;;4916289;29;20266;-75
2021/06/10 08:19:24;;;;;;;0.10;0.10;;;24.50;93.00;;;;;;4917116;29;20285;-76
2021/06/10 08:21:52;;;;;;;0.10;0.10;;;24.50;93.50;;;;;;4920725;29;20602;-76
2021/06/10 08:24:19;;;;;;;0.20;0.20;;;24.50;93.30;;;;;;4921024;29;20207;-77
2021/06/10 08:26:47;;;;;;;0.10;0.10;;;24.50;93.00;;;;;;4920255;29;20316;-77
2021/06/10 08:29:16;;;;;;;0.10;0.10;;;24.40;93.20;;;;;;4920974;29;20206;-78
2021/06/10 08:31:43;;;;;;;0.20;0.20;;;24.30;93.40;;;;;;4920801;29;20281;-77
2021/06/10 08:34:11;;;;;;;0.10;0.10;;;24.20;93.10;;;;;;4920754;29;20746;-77
2021/06/10 08:36:38;;;;;;;0.10;0.10;;;24.40;94.20;;;;;;4921546;29;20262;-77
2021/06/10 08:39:07;;;;;;;0.10;0.10;;;24.60;93.30;;;;;;4921061;29;20214;-76
2021/06/10 08:41:35;;;;;;;0.10;0.10;;;24.80;92.80;;;;;;4920854;29;20227;-77
2021/06/10 08:44:03;;;;;;;0.10;0.10;;;25.10;93.30;;;;;;4920665;29;20224;-76
2021/06/10 08:46:35;;;;;;;0.10;0.10;;;25.40;99.90;;;;;;4920636;29;20207;-75
2021/06/10 08:49:04;;;;;;;0.10;0.10;;;25.50;93.60;;;;;;4920776;29;20202;-78
2021/06/10 08:51:32;;;;;;;0.10;0.10;;;25.80;98.30;;;;;;4920760;29;20227;-76
2021/06/10 08:54:01;;;;;;;0.10;0.10;;;25.60;92.00;;;;;;4919749;29;20218;-77
2021/06/10 08:56:30;;;;;;;0.10;0.10;;;25.60;92.10;;;;;;4919555;29;20629;-75
2021/06/10 08:58:58;;;;;;;0.10;0.10;;;25.60;92.50;;;;;;4920094;29;20269;-77
2021/06/10 09:01:26;;;;;;;0.20;0.20;;;25.50;92.30;;;;;;4920068;29;20230;-78
2021/06/10 09:03:55;;;;;;;0.10;0.10;;;25.50;93.30;;;;;;4920017;29;20213;-77
2021/06/10 09:06:23;;;;;;;0.10;0.10;;;25.40;93.00;;;;;;4919824;29;20207;-77
2021/06/10 09:08:56;;;;;;;0.10;0.10;;;25.50;92.00;;;;;;4920985;29;20207;-76
2021/06/10 09:11:25;;;;;;;0.10;0.10;;;25.60;92.50;;;;;;4920096;29;20266;-76
2021/06/10 09:13:55;;;;;;;0.10;0.10;;;25.60;92.00;;;;;;4920469;29;20223;-78
2021/06/10 09:16:27;;;;;;;0.10;0.10;;;25.80;92.10;;;;;;4920029;29;20854;-78
2021/06/10 09:19:00;;;;;;;0.10;0.10;;;25.90;91.80;;;;;;4920549;29;20214;-78
2021/06/10 09:21:33;;;;;;;0.10;0.10;;;25.90;97.60;;;;;;4920453;29;20230;-77
2021/06/10 09:24:23;;;;;;;0.10;0.10;;;25.90;95.90;;;;;;4920899;29;20215;-77
2021/06/10 09:27:00;;;;;;;0.10;0.10;;;26.10;91.70;;;;;;4919998;29;20735;-78
2021/06/10 09:29:39;;;;;;;0.10;0.10;;;26.30;95.30;;;;;;4920443;29;20210;-76
2021/06/10 09:32:10;;;;;;;0.10;0.10;;;;;;;;;;4918984;29;20234;-76
2021/06/10 09:34:44;;;;;;;0.10;0.10;;;26.20;90.30;;;;;;4920075;29;20250;-77
2021/06/10 09:37:13;;;;;;;0.10;0.10;;;26.30;89.90;;;;;;4919856;29;20286;-76
2021/06/10 09:39:51;;;;;;;0.10;0.10;;;26.70;89.70;;;;;;4920110;29;20210;-77
2021/06/10 09:42:24;;;;;;;0.10;0.10;;;26.90;87.70;;;;;;4920182;29;20317;-77
2021/06/10 09:44:57;;;;;;;0.10;0.10;;;26.90;87.90;;;;;;4919719;29;20755;-77
2021/06/10 09:47:32;;;;;;;0.10;0.10;;;26.90;87.80;;;;;;4919113;29;20268;-77
2021/06/10 09:50:22;;;;;;;0.10;0.10;;;26.60;89.00;;;;;;4919381;29;20206;-76
2021/06/10 09:52:53;;;;;;;0.10;0.10;;;26.40;88.90;;;;;;4919588;29;20210;-77
2021/06/10 09:55:45;;;;;;;0.10;0.10;;;26.40;89.60;;;;;;4919328;29;20222;-78
2021/06/10 09:58:23;;;;;;;0.10;0.10;;;26.40;90.20;;;;;;4919470;29;20274;-76
2021/06/10 10:00:56;;;;;;;0.10;0.10;;;26.50;89.20;;;;;;4919329;29;20230;-78
2021/06/10 10:03:29;;;;;;;0.10;0.10;;;26.80;88.00;;;;;;4919225;29;20225;-77
2021/06/10 10:06:00;;;;;;;0.10;0.10;;;27.10;84.90;;;;;;4919059;29;20210;-76
2021/06/10 10:08:28;;;;;;;0.10;0.10;;;27.10;86.10;;;;;;4919792;29;20234;-78
2021/06/10 10:10:57;;;;;;;0.10;0.10;;;26.90;83.10;;;;;;4918735;29;20242;-78
2021/06/10 10:13:25;;;;;;;0.10;0.10;;;27.20;84.10;;;;;;4918823;29;20211;-75
2021/06/10 10:15:53;;;;;;;0.10;0.10;;;27.10;84.00;;;;;;4918158;29;20226;-75
2021/06/10 10:18:21;;;;;;;0.10;0.10;;;26.90;84.10;;;;;;4932270;29;20195;-74
2021/06/10 10:20:48;;;;;;;0.10;0.10;;;26.90;84.70;;;;;;4934207;29;20278;-75
2021/06/10 10:23:17;;;;;;;0.10;0.10;;;26.70;84.80;;;;;;4937253;29;20191;-73
2021/06/10 10:25:44;;;;;;;0.10;0.10;;;26.60;84.60;;;;;;4930758;29;20210;-78
2021/06/10 10:28:13;;;;;;;0.10;0.10;;;26.30;85.40;;;;;;4927109;29;20203;-77
2021/06/10 10:30:45;;;;;;;0.10;0.10;;;26.20;85.80;;;;;;4917861;29;20298;-77
2021/06/10 10:33:16;;;;;;;0.10;0.10;;;25.90;86.20;;;;;;4917469;29;20191;-78
2021/06/10 10:35:49;;;;;;;0.10;0.10;;;25.70;85.10;;;;;;4916810;29;20763;-76
2021/06/10 10:38:22;;;;;;;0.10;0.10;;;25.20;86.70;;;;;;4905340;29;20587;-78
2021/06/10 10:40:54;;;;;;;0.10;0.10;;;25.00;88.40;;;;;;4902503;29;20691;-79
2021/06/10 10:43:22;;;;;;;0.10;0.10;;;23.70;90.60;;;;;;4906875;29;20240;-76
2021/06/10 10:46:04;;;;;;;0.20;0.20;;;23.30;91.90;;;;;;4900320;29;20227;-76
2021/06/10 10:48:33;;;;;;;0.20;0.20;;;22.50;95.30;;;;;;4904534;29;20236;-74
2021/06/10 10:51:00;;;;;;;0.20;0.20;;;23.10;98.30;;;;;;4906802;29;20220;-77
2021/06/10 10:53:44;;;;;;;0.20;0.20;;;21.80;99.90;;;;;;4908309;29;20234;-78
2021/06/10 10:56:11;;;;;;;0.20;0.20;;;21.80;99.90;;;;;;4912629;29;20274;-76
2021/06/10 10:58:39;;;;;;;0.20;0.20;;;21.10;99.90;;;;;;4911548;29;20242;-76
2021/06/10 11:01:08;;;;;;;0.30;0.30;;;20.40;99.90;;;;;;4907184;29;20234;-77
2021/06/10 11:03:41;;;;;;;0.20;0.20;;;19.80;99.90;;;;;;4912227;29;20203;-76
2021/06/10 11:06:31;;;;;;;0.30;0.30;;;19.60;99.90;;;;;;4896211;29;20621;-76
2021/06/10 11:09:10;;;;;;;0.30;0.30;;;19.60;99.90;;;;;;4898893;29;20235;-77
2021/06/10 11:11:57;;;;;;;0.20;0.20;;;19.50;99.90;;;;;;4916238;29;20313;-77
2021/06/10 11:14:42;;;;;;;0.20;0.20;;;19.60;99.90;;;;;;4900282;29;20223;-76
2021/06/10 11:17:18;;;;;;;0.30;0.30;;;19.70;99.90;;;;;;4904059;29;20227;-76
2021/06/10 11:19:53;;;;;;;0.20;0.20;;;19.80;99.90;;;;;;4897545;29;20231;-76
2021/06/10 11:22:45;;;;;;;0.30;0.30;;;20.10;99.90;;;;;;4905597;29;20265;-77
2021/06/10 11:25:43;;;;;;;0.20;0.20;;;20.50;99.90;;;;;;4886087;29;20199;-77
2021/06/10 11:28:13;;;;;;;0.20;0.20;;;20.90;99.90;;;;;;4915129;29;20600;-77
2021/06/10 11:30:41;;;;;;;0.20;0.20;;;21.10;99.90;;;;;;4899608;29;20667;-76
2021/06/10 11:33:10;;;;;;;0.20;0.20;;;21.40;99.90;;;;;;4904969;29;20204;-78
2021/06/10 11:35:41;;;;;;;0.20;0.20;;;21.70;99.90;;;;;;4914647;29;20289;-76
2021/06/10 11:38:14;;;;;;;0.20;0.20;;;22.20;99.90;;;;;;4898200;29;20544;-77
2021/06/10 11:40:45;;;;;;;0.20;0.20;;;22.60;99.90;;;;;;4906904;29;20293;-76
2021/06/10 11:43:14;;;;;;;0.10;0.10;;;22.90;99.90;;;;;;4899279;29;20245;-77
2021/06/10 11:45:48;;;;;;;0.10;0.10;;;23.10;99.90;;;;;;4901719;29;20602;-76
2021/06/10 11:48:30;;;;;;;0.10;0.10;;;23.70;99.90;;;;;;4910298;29;20586;-77
2021/06/10 11:51:02;;;;;;;0.10;0.10;;;23.70;99.90;;;;;;4907728;29;20251;-77
2021/06/10 11:53:31;;;;;;;0.10;0.10;;;24.00;99.90;;;;;;4906946;29;20278;-76
2021/06/10 11:55:59;;;;;;;0.20;0.20;;;24.00;99.90;;;;;;4900461;29;20257;-76
2021/06/10 11:58:28;;;;;;;0.10;0.10;;;24.00;99.90;;;;;;4902432;29;20228;-76
2021/06/10 12:01:04;;;;;;;0.10;0.10;;;24.40;99.90;;;;;;4896607;29;20226;-75
2021/06/10 12:03:35;;;;;;;0.10;0.10;;;24.40;98.60;;;;;;4904148;29;20221;-76
2021/06/10 12:06:03;;;;;;;0.10;0.10;;;24.80;96.70;;;;;;4906065;29;20203;-75
2021/06/10 12:08:32;;;;;;;0.10;0.10;;;24.90;95.30;;;;;;4899651;29;20237;-75
2021/06/10 12:11:04;;;;;;;0.10;0.10;;;25.10;95.20;;;;;;4902096;29;20796;-77
2021/06/10 12:13:34;;;;;;;0.10;0.10;;;25.60;90.90;;;;;;4907580;29;20724;-76
2021/06/10 12:16:03;;;;;;;0.10;0.10;;;25.60;91.20;;;;;;4909500;29;20227;-77
2021/06/10 12:18:31;;;;;;;0.10;0.10;;;25.90;90.00;;;;;;4901675;29;20239;-76
2021/06/10 12:21:01;;;;;;;0.10;0.10;;;;;;;;;;4909826;29;20580;-76
2021/06/10 12:23:34;;;;;;;0.10;0.10;;;26.60;89.20;;;;;;4899292;29;20203;-77
2021/06/10 12:26:05;;;;;;;0.10;0.10;;;26.80;85.20;;;;;;4902130;29;20242;-78
2021/06/10 12:28:40;;;;;;;0.10;0.10;;;27.30;84.80;;;;;;4907642;29;20726;-77
2021/06/10 12:31:11;;;;;;;0.10;0.10;;;27.60;81.30;;;;;;4911342;29;20278;-77
2021/06/10 12:33:41;;;;;;;0.10;0.10;;;27.20;79.10;;;;;;4904215;29;20195;-76
2021/06/10 12:36:15;;;;;;;0.10;0.10;;;27.80;76.80;;;;;;4900242;29;20251;-76
2021/06/10 12:38:45;;;;;;;0.10;0.10;;;28.10;73.70;;;;;;4906815;29;20673;-76
2021/06/10 12:41:20;;;;;;;0.10;0.10;;;28.50;77.30;;;;;;4901219;29;20276;-77
2021/06/10 12:43:49;;;;;;;0.10;0.10;;;29.30;72.10;;;;;;4908147;29;20274;-77
2021/06/10 12:46:17;;;;;;;0.10;0.10;;;29.60;67.40;;;;;;4907148;29;21669;-76
2021/06/10 12:48:58;;;;;;;0.10;0.10;;;29.60;66.80;;;;;;4901550;29;20575;-77
2021/06/10 12:51:31;;;;;;;0.10;0.10;;;29.80;68.90;;;;;;4898006;29;20224;-75
2021/06/10 12:54:09;;;;;;;0.10;0.10;;;29.80;68.20;;;;;;4910911;29;20195;-76
2021/06/10 12:56:51;;;;;;;0.10;0.10;;;30.60;67.30;;;;;;4908991;29;20644;-77
2021/06/10 12:59:30;;;;;;;0.10;0.10;;;31.30;64.80;;;;;;4899004;29;20266;-76
2021/06/10 13:02:10;;;;;;;0.05;0.05;;;31.90;64.00;;;;;;4899249;29;20284;-76
2021/06/10 13:04:40;;;;;;;0.10;0.10;;;32.20;61.70;;;;;;4904117;29;20254;-77
2021/06/10 13:07:09;;;;;;;0.00;0.00;;;32.30;62.10;;;;;;4905683;29;20199;-76
2021/06/10 13:09:44;;;;;;;0.00;0.00;;;33.00;59.90;;;;;;4903107;29;20199;-76
2021/06/10 13:12:15;;;;;;;0.00;0.00;;;32.60;59.80;;;;;;4905242;29;20238;-77
2021/06/10 13:14:43;;;;;;;0.10;0.10;;;32.20;61.10;;;;;;4907911;29;20290;-76
2021/06/10 13:17:11;;;;;;;0.00;0.00;;;31.80;62.10;;;;;;4910258;29;20215;-76
2021/06/10 13:19:48;;;;;;;0.10;0.10;;;31.60;63.70;;;;;;4907201;29;20234;-78
2021/06/10 13:22:16;;;;;;;0.10;0.10;;;32.20;62.70;;;;;;4907120;29;20229;-77
2021/06/10 13:24:47;;;;;;;0.10;0.10;;;32.80;62.10;;;;;;4908711;29;20685;-77
2021/06/10 13:27:21;;;;;;;0.10;0.10;;;33.80;59.20;;;;;;4906413;29;20676;-76
2021/06/10 13:29:50;;;;;;;0.00;0.00;;;34.60;57.10;;;;;;4902222;29;20203;-76
2021/06/10 13:32:27;;;;;;;0.00;0.00;;;35.20;54.70;;;;;;4899439;29;20222;-76
2021/06/10 13:35:00;;;;;;;0.00;0.00;;;35.90;54.20;;;;;;4912346;29;20240;-76
2021/06/10 13:37:28;;;;;;;0.00;0.00;;;36.30;53.20;;;;;;4918210;29;20210;-77
2021/06/10 13:39:55;;;;;;;0.00;0.00;;;37.00;51.80;;;;;;4918045;29;20246;-76
2021/06/10 13:42:24;;;;;;;0.00;0.00;;;36.70;50.70;;;;;;4918229;29;20286;-76
2021/06/10 13:44:52;;;;;;;0.00;0.00;;;35.30;54.90;;;;;;4918252;29;20237;-76
2021/06/10 13:47:21;;;;;;;0.00;0.00;;;34.20;56.50;;;;;;4918019;29;20285;-77
2021/06/10 13:49:48;;;;;;;0.00;0.00;;;33.20;58.80;;;;;;4917996;29;20210;-76
2021/06/10 13:52:17;;;;;;;0.10;0.10;;;31.30;61.70;;;;;;4917709;29;20226;-75
2021/06/10 13:54:44;;;;;;;0.10;0.10;;;31.30;62.30;;;;;;4910323;29;20203;-77
2021/06/10 13:57:12;;;;;;;0.10;0.10;;;30.70;64.00;;;;;;4898622;29;20251;-75
2021/06/10 13:59:41;;;;;;;0.10;0.10;;;29.80;64.80;;;;;;4898970;29;20211;-75
2021/06/10 14:02:08;;;;;;;0.10;0.10;;;29.20;66.00;;;;;;4899318;29;20295;-79
2021/06/10 14:04:36;;;;;;;0.10;0.10;;;29.00;67.40;;;;;;4901916;29;20568;-77
2021/06/10 14:07:03;;;;;;;0.10;0.10;;;28.80;68.00;;;;;;4917668;29;20203;-79
2021/06/10 14:09:31;;;;;;;0.10;0.10;;;28.50;66.60;;;;;;4899740;29;20203;-76
2021/06/10 14:11:58;;;;;;;0.10;0.10;;;28.60;67.80;;;;;;4899662;29;20635;-75
2021/06/10 14:14:26;;;;;;;0.10;0.10;;;28.50;67.30;;;;;;4900366;29;20328;-75
2021/06/10 14:16:54;;;;;;;0.10;0.10;;;28.40;66.80;;;;;;4899699;29;20282;-75
2021/06/10 14:19:22;;;;;;;0.10;0.10;;;28.10;67.00;;;;;;4899546;29;20207;-75
2021/06/10 14:21:49;;;;;;;0.10;0.10;;;28.20;67.40;;;;;;4899540;29;20628;-75
2021/06/10 14:24:17;;;;;;;0.10;0.10;;;28.20;66.10;;;;;;4899255;29;20207;-77
2021/06/10 14:26:44;;;;;;;0.10;0.10;;;28.30;66.30;;;;;;4899553;29;20203;-77
2021/06/10 14:29:24;;;;;;;0.10;0.10;;;28.30;65.40;;;;;;4903434;29;20234;-77
2021/06/10 14:34:39;;;;;;;0.10;0.10;;;28.30;67.30;;;;;;4919403;29;20207;-76
2021/06/10 14:37:06;;;;;;;0.10;0.10;;;28.00;66.60;;;;;;4901953;29;20726;-76
2021/06/10 14:39:34;;;;;;;0.10;0.10;;;28.10;67.30;;;;;;4918544;29;20587;-74
2021/06/10 14:42:01;;;;;;;0.10;0.10;;;27.80;67.00;;;;;;4918960;29;20241;-76
2021/06/10 14:44:28;;;;;;;0.10;0.10;;;27.90;71.10;;;;;;4919968;29;20206;-76
2021/06/10 14:46:56;;;;;;;0.10;0.10;;;27.80;91.90;;;;;;4919318;29;20206;-81
2021/06/10 14:49:23;;;;;;;0.10;0.10;;;27.70;67.20;;;;;;4920894;29;20210;-78
2021/06/10 14:51:52;;;;;;;0.10;0.10;;;27.40;68.30;;;;;;4928369;29;20226;-82
2021/06/10 14:54:20;;;;;;;0.10;0.10;;;27.30;69.90;;;;;;4924763;29;20235;-78
2021/06/10 14:56:47;;;;;;;0.10;0.10;;;27.30;69.90;;;;;;4920533;29;20223;-80
2021/06/10 14:59:18;;;;;;;0.10;0.10;;;27.10;69.60;;;;;;4920216;29;20225;-79
2021/06/10 15:01:46;;;;;;;0.10;0.10;;;27.10;70.20;;;;;;4921149;29;20230;-79
2021/06/10 15:04:13;;;;;;;0.10;0.10;;;27.10;70.50;;;;;;4919268;29;20191;-80
2021/06/10 15:06:41;;;;;;;0.10;0.10;;;26.90;70.10;;;;;;4920230;29;20618;-78
2021/06/10 15:09:09;;;;;;;0.10;0.10;;;26.90;70.20;;;;;;4920055;29;20274;-78
2021/06/10 15:11:38;;;;;;;0.10;0.10;;;26.70;70.60;;;;;;4917505;29;20222;-79
2021/06/10 15:14:05;;;;;;;0.10;0.10;;;26.40;72.40;;;;;;4916215;29;20203;-78
2021/06/10 15:16:33;;;;;;;0.10;0.10;;;26.40;72.60;;;;;;4919068;29;20266;-77
2021/06/10 15:19:00;;;;;;;0.10;0.10;;;26.10;75.00;;;;;;4917838;29;20672;-78
2021/06/10 15:21:27;;;;;;;0.10;0.10;;;25.80;75.50;;;;;;4918349;29;20281;-78
2021/06/10 15:23:56;;;;;;;0.20;0.20;;;25.60;75.40;;;;;;4919499;29;20210;-78
2021/06/10 15:26:25;;;;;;;0.10;0.10;;;25.50;75.10;;;;;;4918126;29;20222;-77
2021/06/10 15:28:53;;;;;;;0.10;0.10;;;25.60;76.10;;;;;;4917104;29;20653;-76
2021/06/10 15:31:20;;;;;;;0.10;0.10;;;25.90;74.40;;;;;;4918225;29;20645;-77
2021/06/10 15:33:47;;;;;;;0.10;0.10;;;26.10;74.00;;;;;;4919005;29;20206;-78
2021/06/10 15:36:15;;;;;;;0.10;0.10;;;26.20;74.00;;;;;;4913404;29;20222;-78
2021/06/10 15:38:42;;;;;;;0.10;0.10;;;26.60;74.90;;;;;;4927742;29;20656;-77
2021/06/10 15:41:11;;;;;;;0.10;0.10;;;26.40;74.50;;;;;;4937657;29;20261;-78
2021/06/10 15:43:41;;;;;;;0.10;0.10;;;26.40;75.30;;;;;;4938345;29;20210;-78
2021/06/10 15:46:09;;;;;;;0.10;0.10;;;26.30;75.60;;;;;;4939648;29;20206;-79
2021/06/10 15:48:36;;;;;;;0.10;0.10;;;26.20;75.90;;;;;;4937660;29;20206;-77
2021/06/10 15:51:05;;;;;;;0.20;0.20;;;26.20;75.60;;;;;;4937238;29;20718;-78
2021/06/10 15:53:33;;;;;;;0.10;0.10;;;26.30;74.90;;;;;;4937095;29;20742;-78
2021/06/10 15:56:02;;;;;;;0.20;0.20;;;26.40;74.70;;;;;;4936028;29;20292;-78
2021/06/10 15:58:29;;;;;;;0.10;0.10;;;26.30;74.10;;;;;;4938720;29;20489;-78
2021/06/10 16:00:59;;;;;;;0.32;0.32;;;26.40;75.90;;;;;;4939349;29;20229;-76
2021/06/10 16:03:27;;;;;;;0.88;0.88;;;26.40;74.20;;;;;;4928800;29;20207;-77
2021/06/10 16:05:54;;;;;;;0.70;0.70;;;26.70;73.20;;;;;;4918448;29;20207;-78
2021/06/10 16:08:23;;;;;;;0.60;0.60;;;27.10;73.40;;;;;;4914358;29;20684;-75
2021/06/10 16:11:07;;;;;;;0.20;0.20;;;27.50;71.80;;;;;;4907404;29;20230;-76
2021/06/10 16:13:35;;;;;;;0.10;0.10;;;27.80;71.00;;;;;;4896484;29;20211;-77
2021/06/10 16:16:05;;;;;;;0.15;0.15;;;27.60;70.50;;;;;;4896871;29;20234;-76
2021/06/10 16:18:36;;;;;;;0.10;0.10;;;26.90;72.20;;;;;;4895740;29;20237;-76
2021/06/10 16:21:05;;;;;;;4.03;3.92;;;26.90;72.50;;;;;;4895400;29;20227;-75
2021/06/10 16:23:33;;;;;;;0.20;0.20;;;26.90;73.20;;;;;;4896945;29;20243;-78
2021/06/10 16:26:02;;;;;;;0.10;0.10;;;26.80;74.10;;;;;;4897582;29;20703;-77
2021/06/10 16:28:32;;;;;;;0.10;0.10;;;26.90;75.30;;;;;;4897651;29;20262;-78
2021/06/10 16:31:00;;;;;;;0.10;0.10;;;26.90;73.70;;;;;;4900041;29;20231;-78
2021/06/10 16:33:29;;;;;;;0.10;0.10;;;26.70;74.50;;;;;;4900218;29;20210;-78
2021/06/10 16:36:00;;;;;;;0.20;0.20;;;26.50;74.50;;;;;;4899258;29;20581;-77
2021/06/10 16:38:28;;;;;;;1.08;1.08;;;26.10;75.20;;;;;;4898151;29;20275;-78
2021/06/10 16:40:56;;;;;;;0.60;0.60;;;25.90;76.60;;;;;;4897623;29;20227;-76
2021/06/10 16:43:24;;;;;;;0.50;0.50;;;26.50;76.50;;;;;;4939412;23;20264;-76
2021/06/10 16:45:52;;;;;;;0.80;0.80;;;26.20;76.30;;;;;;4956749;29;20201;-77
2021/06/10 16:48:19;;;;;;;0.75;0.75;;;26.20;76.40;;;;;;4957170;29;20211;-77
2021/06/10 16:50:48;;;;;;;0.20;0.20;;;26.30;75.40;;;;;;4957169;29;20662;-75
2021/06/10 16:53:16;;;;;;;0.30;0.30;;;26.10;75.20;;;;;;4956837;29;20225;-76
2021/06/10 16:55:44;;;;;;;0.30;0.30;;;25.90;75.70;;;;;;4955718;28;20218;-75
2021/06/10 16:58:11;;;;;;;0.20;0.20;;;25.70;76.30;;;;;;4948697;29;20253;-75
2021/06/10 17:00:42;;;;;;;0.10;0.10;;;25.60;77.20;;;;;;4937996;29;20206;-75
2021/06/10 17:05:56;;;;;;;0.10;0.10;;;25.20;77.70;;;;;;4953673;28;20273;-76
2021/06/10 17:08:24;;;;;;;0.10;0.10;;;24.90;77.80;;;;;;4955313;29;20205;-76
2021/06/10 17:10:51;;;;;;;0.10;0.10;;;24.70;78.90;;;;;;4956775;29;20209;-76
2021/06/10 17:13:18;;;;;;;0.10;0.10;;;24.50;80.10;;;;;;4957241;29;20313;-76
2021/06/10 17:15:46;;;;;;;0.10;0.10;;;24.30;80.90;;;;;;4956953;29;20229;-75
2021/06/10 17:18:13;;;;;;;0.10;0.10;;;24.30;81.40;;;;;;4957449;29;20233;-75